Time;durP1;ratioP1;P1;durP2;ratioP2;P2;SDS_P1;SDS_P2;PMS_P1;PMS_P2;Temp;Humidity;BMP_temperature;BMP_pressure;BME280_temperature;BME280_humidity;BME280_pressure;Samples;Min_cycle;Max_cycle;Signal;HPM_P1;HPM_P2
2023/01/15 00:02:04;;;;;;;;;;;6.90;99.90;;;;;;5064230;28;19940;-93
2023/01/15 00:04:30;;;;;;;;;;;6.90;99.90;;;;;;5088211;28;19943;-89
2023/01/15 00:06:55;;;;;;;;;;;6.90;99.90;;;;;;5089886;28;19904;-86
2023/01/15 00:09:21;;;;;;;;;;;6.90;99.90;;;;;;5076339;28;19959;-88
2023/01/15 00:11:46;;;;;;;;;;;6.90;99.90;;;;;;5076241;28;19959;-91
2023/01/15 00:14:12;;;;;;;;;;;6.90;99.90;;;;;;5075690;28;19908;-88
2023/01/15 00:16:39;;;;;;;;;;;6.90;99.90;;;;;;5076196;28;19904;-91
2023/01/15 00:19:07;;;;;;;;;;;6.90;99.90;;;;;;5090009;28;19908;-90
2023/01/15 00:21:32;;;;;;;;;;;6.90;99.90;;;;;;5074407;28;19991;-88
2023/01/15 00:29:46;;;;;;;;;;;6.90;99.90;;;;;;5031232;28;19959;-89
2023/01/15 00:32:12;;;;;;;;;;;6.90;99.90;;;;;;5022792;28;19960;-86
2023/01/15 00:34:37;;;;;;;;;;;6.90;99.90;;;;;;5048434;28;19916;-87
2023/01/15 00:37:03;;;;;;;;;;;7.00;99.90;;;;;;5081678;28;19916;-85
2023/01/15 00:39:28;;;;;;;;;;;6.90;99.90;;;;;;5083540;28;20195;-86
2023/01/15 00:41:54;;;;;;;;;;;6.90;99.90;;;;;;5079601;28;20002;-87
2023/01/15 00:44:20;;;;;;;;;;;6.90;99.90;;;;;;5099764;28;20310;-90
2023/01/15 00:46:46;;;;;;;;;;;6.90;99.90;;;;;;5081700;28;19911;-89
2023/01/15 00:49:11;;;;;;;;;;;6.90;99.90;;;;;;5099945;28;19922;-86
2023/01/15 00:51:37;;;;;;;;;;;6.90;99.90;;;;;;5099368;28;19904;-85
2023/01/15 00:54:03;;;;;;;;;;;6.90;99.90;;;;;;5079699;28;19955;-87
2023/01/15 00:56:28;;;;;;;;;;;6.90;99.90;;;;;;5091378;28;20003;-94
2023/01/15 00:58:54;;;;;;;;;;;6.90;99.90;;;;;;5095061;28;19958;-88
2023/01/15 01:01:19;;;;;;;;;;;6.90;99.90;;;;;;5079347;28;19982;-86
2023/01/15 01:03:47;;;;;;;;;;;6.90;99.90;;;;;;5079035;28;19905;-86
2023/01/15 01:06:14;;;;;;;;;;;6.80;99.90;;;;;;5087492;28;19946;-85
2023/01/15 01:08:40;;;;;;;;;;;6.80;99.90;;;;;;5098823;28;19941;-86
2023/01/15 01:11:07;;;;;;;;;;;6.80;99.90;;;;;;5099019;28;19905;-87
2023/01/15 01:13:33;;;;;;;;;;;6.80;99.90;;;;;;5086673;28;19912;-85
2023/01/15 01:15:58;;;;;;;;;;;6.70;99.90;;;;;;5097469;28;19904;-91
2023/01/15 01:18:24;;;;;;;;;;;6.70;99.90;;;;;;5099428;28;19904;-87
2023/01/15 01:20:50;;;;;;;;;;;6.70;99.90;;;;;;5096127;28;19926;-89
2023/01/15 01:23:15;;;;;;;;;;;6.70;99.90;;;;;;5083150;28;20278;-95
2023/01/15 01:25:41;;;;;;;;;;;6.70;99.90;;;;;;5106529;22;19911;31
2023/01/15 01:28:06;;;;;;;;;;;6.70;99.90;;;;;;5055778;28;19921;-85
2023/01/15 01:30:32;;;;;;;;;;;6.70;99.90;;;;;;5042014;28;19905;-76
2023/01/15 01:33:00;;;;;;;;;;;6.70;99.90;;;;;;5054809;23;19967;-91
2023/01/15 01:35:26;;;;;;;;;;;6.70;99.90;;;;;;5073746;28;19908;-89
2023/01/15 01:37:51;;;;;;;;;;;6.60;99.90;;;;;;5077791;28;19987;-86
2023/01/15 01:40:17;;;;;;;;;;;6.60;99.90;;;;;;5077514;28;19943;-90
2023/01/15 01:42:44;;;;;;;;;;;6.60;99.90;;;;;;5078161;28;19915;-76
2023/01/15 01:45:15;;;;;;;;;;;6.60;99.90;;;;;;5078508;28;19975;-87
2023/01/15 01:47:41;;;;;;;;;;;6.60;99.90;;;;;;5077936;28;19908;-87
2023/01/15 01:50:08;;;;;;;;;;;6.60;99.90;;;;;;5072127;28;19904;-88
2023/01/15 01:52:54;;;;;;;;;;;6.60;99.90;;;;;;5077633;28;19946;-92
2023/01/15 01:55:22;;;;;;;;;;;6.60;99.90;;;;;;5078401;28;19954;-86
2023/01/15 01:57:49;;;;;;;;;;;6.60;99.90;;;;;;5077711;28;19912;-85
2023/01/15 02:00:15;;;;;;;;;;;6.70;99.90;;;;;;5078485;28;20008;-87
2023/01/15 02:02:42;;;;;;;;;;;6.60;99.90;;;;;;5076809;28;19947;-89
2023/01/15 02:05:08;;;;;;;;;;;6.60;99.90;;;;;;5076983;28;19908;-88
2023/01/15 02:07:34;;;;;;;;;;;6.60;99.90;;;;;;5078334;28;19911;-89
2023/01/15 02:09:59;;;;;;;;;;;6.70;99.90;;;;;;5077582;28;19905;-92
2023/01/15 02:12:34;;;;;;;;;;;6.70;99.90;;;;;;5078218;28;19939;-83
2023/01/15 02:15:12;;;;;;;;;;;6.60;99.90;;;;;;5076964;28;19917;-88
2023/01/15 02:17:45;;;;;;;;;;;6.60;99.90;;;;;;5077702;28;19904;-84
2023/01/15 02:20:27;;;;;;;;;;;6.60;99.90;;;;;;5077244;28;20306;-91
2023/01/15 02:22:53;;;;;;;;;;;6.60;99.90;;;;;;5060261;28;19912;-76
2023/01/15 02:25:18;;;;;;;;;;;6.60;99.90;;;;;;5077329;28;20214;-87
2023/01/15 02:27:48;;;;;;;;;;;6.60;99.90;;;;;;5077744;28;19908;-83
2023/01/15 02:30:34;;;;;;;;;;;6.60;99.90;;;;;;5077694;28;19991;-86
2023/01/15 02:32:59;;;;;;;;;;;6.60;99.90;;;;;;5067961;28;19924;-90
2023/01/15 02:35:33;;;;;;;;;;;6.50;99.90;;;;;;5064375;28;20295;-87
2023/01/15 02:38:00;;;;;;;;;;;6.50;99.90;;;;;;5067722;28;20206;-89
2023/01/15 02:40:27;;;;;;;;;;;6.50;99.90;;;;;;5073576;28;19905;-89
2023/01/15 02:42:53;;;;;;;;;;;6.50;99.90;;;;;;5071147;28;19909;-88
2023/01/15 02:45:23;;;;;;;;;;;6.50;99.90;;;;;;5076802;28;20291;-88
2023/01/15 02:47:50;;;;;;;;;;;6.50;99.90;;;;;;5077711;28;19912;-89
2023/01/15 02:50:18;;;;;;;;;;;6.50;99.90;;;;;;5072633;28;19905;-89
2023/01/15 02:52:46;;;;;;;;;;;6.50;99.90;;;;;;5076460;28;19904;-74
2023/01/15 02:55:14;;;;;;;;;;;6.50;99.90;;;;;;5076950;28;20002;-86
2023/01/15 02:57:41;;;;;;;;;;;6.50;99.90;;;;;;5071644;28;19995;-88
2023/01/15 03:00:09;;;;;;;;;;;6.50;99.90;;;;;;5076813;28;20298;-88
2023/01/15 03:03:01;;;;;;;;;;;6.50;99.90;;;;;;5076774;28;19908;-74
2023/01/15 03:05:37;;;;;;;;;;;6.40;99.90;;;;;;5073224;28;19904;-89
2023/01/15 03:08:05;;;;;;;;;;;6.50;99.90;;;;;;5070349;28;19912;-75
2023/01/15 03:10:37;;;;;;;;;;;6.40;99.90;;;;;;5076776;28;19904;-85
2023/01/15 03:13:03;;;;;;;;;;;6.30;99.90;;;;;;5075215;28;19958;-88
2023/01/15 03:18:22;;;;;;;;;;;6.30;99.90;;;;;;5076652;28;19950;-87
2023/01/15 03:20:50;;;;;;;;;;;6.30;99.90;;;;;;5076640;28;19904;-87
2023/01/15 03:23:17;;;;;;;;;;;6.30;99.90;;;;;;5076059;28;19904;-90
2023/01/15 03:25:46;;;;;;;;;;;6.30;99.90;;;;;;5076673;28;19934;-78
2023/01/15 03:28:13;;;;;;;;;;;6.30;99.90;;;;;;5075741;28;19915;-86
2023/01/15 03:30:38;;;;;;;;;;;6.30;99.90;;;;;;5076391;28;19912;-87
2023/01/15 03:33:04;;;;;;;;;;;6.30;99.90;;;;;;5076329;28;19916;-77
2023/01/15 03:35:51;;;;;;;;;;;6.20;99.90;;;;;;5075143;28;20299;-92
2023/01/15 03:38:21;;;;;;;;;;;6.20;99.90;;;;;;5075301;28;19908;-89
2023/01/15 03:41:05;;;;;;;;;;;6.20;99.90;;;;;;5075758;28;19904;-86
2023/01/15 03:43:42;;;;;;;;;;;6.20;99.90;;;;;;5069935;28;19953;-85
2023/01/15 03:46:31;;;;;;;;;;;6.20;99.90;;;;;;5062488;28;19909;-86
2023/01/15 03:49:20;;;;;;;;;;;6.20;99.90;;;;;;5075828;28;19954;-89
2023/01/15 03:52:01;;;;;;;;;;;6.20;99.90;;;;;;5076820;28;19904;-86
2023/01/15 03:54:56;;;;;;;;;;;6.20;99.90;;;;;;5075330;28;19908;-86
2023/01/15 03:57:27;;;;;;;;;;;6.20;99.90;;;;;;5062670;28;19905;-87
2023/01/15 03:59:54;;;;;;;;;;;6.20;99.90;;;;;;5076318;28;19908;-83
2023/01/15 04:02:20;;;;;;;;;;;6.20;99.90;;;;;;5075532;28;19908;-87
2023/01/15 04:04:47;;;;;;;;;;;6.20;99.90;;;;;;5071462;28;19904;-85
2023/01/15 04:07:13;;;;;;;;;;;6.20;99.90;;;;;;5068492;28;19918;-86
2023/01/15 04:09:39;;;;;;;;;;;6.20;99.90;;;;;;5074990;28;19947;-83
2023/01/15 04:12:05;;;;;;;;;;;6.20;99.90;;;;;;5076010;28;19931;-82
2023/01/15 04:14:31;;;;;;;;;;;6.20;99.90;;;;;;5075137;28;19943;-83
2023/01/15 04:16:57;;;;;;;;;;;6.30;99.90;;;;;;5077591;28;20206;-87
2023/01/15 04:19:23;;;;;;;;;;;6.20;99.90;;;;;;5079365;28;19909;-79
2023/01/15 04:21:48;;;;;;;;;;;6.20;99.90;;;;;;5079524;28;19905;-88
2023/01/15 04:24:14;;;;;;;;;;;6.20;99.90;;;;;;5079591;28;19953;-84
2023/01/15 04:26:39;;;;;;;;;;;6.20;99.90;;;;;;5079475;28;19951;-88
2023/01/15 04:29:05;;;;;;;;;;;6.10;99.90;;;;;;5078931;28;20487;-87
2023/01/15 04:31:35;;;;;;;;;;;6.10;99.90;;;;;;5079241;28;20213;-87
2023/01/15 04:34:01;;;;;;;;;;;6.20;99.90;;;;;;5079991;28;19997;-86
2023/01/15 04:36:26;;;;;;;;;;;6.10;99.90;;;;;;5079969;28;20062;-89
2023/01/15 04:38:53;;;;;;;;;;;6.10;99.90;;;;;;5079154;28;20350;-85
2023/01/15 04:44:06;;;;;;;;;;;6.20;99.90;;;;;;5077467;28;19916;-87
2023/01/15 04:46:34;;;;;;;;;;;6.20;99.90;;;;;;5079605;28;20199;-91
2023/01/15 04:49:00;;;;;;;;;;;6.20;99.90;;;;;;5061184;28;19947;-87
2023/01/15 04:51:25;;;;;;;;;;;6.20;99.90;;;;;;5079709;28;19993;-88
2023/01/15 04:53:52;;;;;;;;;;;6.20;99.90;;;;;;5078878;28;19908;-87
2023/01/15 04:56:18;;;;;;;;;;;6.30;99.90;;;;;;5079375;28;19904;-90
2023/01/15 04:58:43;;;;;;;;;;;6.20;99.90;;;;;;5078871;28;20003;-83
2023/01/15 05:01:13;;;;;;;;;;;6.20;99.90;;;;;;5078713;28;19947;-86
2023/01/15 05:03:39;;;;;;;;;;;6.30;99.90;;;;;;5079299;28;19912;-86
2023/01/15 05:06:05;;;;;;;;;;;6.20;99.90;;;;;;5078512;28;20233;-86
2023/01/15 05:08:30;;;;;;;;;;;6.20;99.90;;;;;;5078587;28;20003;-85
2023/01/15 05:11:00;;;;;;;;;;;6.20;99.90;;;;;;5077875;28;19911;-87
2023/01/15 05:13:26;;;;;;;;;;;6.20;99.90;;;;;;5078444;28;19951;-90
2023/01/15 05:15:51;;;;;;;;;;;6.20;99.90;;;;;;5061275;28;19940;-88
2023/01/15 05:18:17;;;;;;;;;;;6.20;99.90;;;;;;5078082;28;20010;-91
2023/01/15 05:20:42;;;;;;;;;;;6.20;99.90;;;;;;5079106;28;19912;-87
2023/01/15 05:23:08;;;;;;;;;;;6.20;99.90;;;;;;5078328;28;19905;-87
2023/01/15 05:25:37;;;;;;;;;;;6.20;99.90;;;;;;5060955;28;20299;-88
2023/01/15 05:28:03;;;;;;;;;;;6.10;99.90;;;;;;5077746;28;19908;-82
2023/01/15 05:30:28;;;;;;;;;;;6.10;99.90;;;;;;5061128;28;20310;-85
2023/01/15 05:32:54;;;;;;;;;;;6.10;99.90;;;;;;5078364;28;19920;-88
2023/01/15 05:35:20;;;;;;;;;;;6.10;99.90;;;;;;5076986;28;19915;-93
2023/01/15 05:37:45;;;;;;;;;;;6.10;99.90;;;;;;5079030;28;19905;-89
2023/01/15 05:40:11;;;;;;;;;;;6.10;99.90;;;;;;5065038;28;19904;-88
2023/01/15 05:42:36;;;;;;;;;;;6.00;99.90;;;;;;5077808;28;20006;-90
2023/01/15 05:45:02;;;;;;;;;;;6.00;99.90;;;;;;5078613;28;19962;-86
2023/01/15 05:47:28;;;;;;;;;;;6.00;99.90;;;;;;5077816;28;19904;-86
2023/01/15 05:49:53;;;;;;;;;;;6.00;99.90;;;;;;5078451;28;19910;-87
2023/01/15 05:52:19;;;;;;;;;;;6.10;99.90;;;;;;5078009;28;20191;-92
2023/01/15 05:54:44;;;;;;;;;;;6.00;99.90;;;;;;5078199;28;20223;-84
2023/01/15 05:57:11;;;;;;;;;;;6.00;99.90;;;;;;5078182;28;20262;-86
2023/01/15 05:59:37;;;;;;;;;;;6.00;99.90;;;;;;5064244;28;19905;-88
2023/01/15 06:02:03;;;;;;;;;;;5.90;99.90;;;;;;5078138;28;19974;-90
2023/01/15 06:04:28;;;;;;;;;;;5.80;99.90;;;;;;5076232;28;20007;-88
2023/01/15 06:06:54;;;;;;;;;;;5.80;99.90;;;;;;5078251;28;19911;-74
2023/01/15 06:09:21;;;;;;;;;;;5.80;99.90;;;;;;5076152;28;19915;-87
2023/01/15 06:11:47;;;;;;;;;;;5.70;99.90;;;;;;5078536;28;19950;-91
2023/01/15 06:14:13;;;;;;;;;;;5.60;99.90;;;;;;5077548;28;19912;-84
2023/01/15 06:16:39;;;;;;;;;;;5.60;99.90;;;;;;5077884;28;19912;-87
2023/01/15 06:19:05;;;;;;;;;;;5.60;99.90;;;;;;5078257;28;19904;-86
2023/01/15 06:21:31;;;;;;;;;;;5.60;99.90;;;;;;5077587;28;19908;-90
2023/01/15 06:23:57;;;;;;;;;;;5.50;99.90;;;;;;5078440;28;19905;-88
2023/01/15 06:26:23;;;;;;;;;;;5.50;99.90;;;;;;5071195;28;19908;-91
2023/01/15 06:28:48;;;;;;;;;;;5.50;99.90;;;;;;5062219;28;19995;-90
2023/01/15 06:31:15;;;;;;;;;;;5.40;99.90;;;;;;5071695;28;19904;-88
2023/01/15 06:59:51;;;;;;;;;;;5.50;99.90;;;;;;5061995;28;20036;-85
2023/01/15 07:02:17;;;;;;;;;;;5.40;99.90;;;;;;5064677;28;20007;-93
2023/01/15 07:04:43;;;;;;;;;;;5.40;99.90;;;;;;5070534;28;20397;-86
2023/01/15 07:07:09;;;;;;;;;;;5.40;99.90;;;;;;5063489;28;19915;-86
2023/01/15 07:09:34;;;;;;;;;;;5.30;99.90;;;;;;5069177;28;19951;-89
2023/01/15 07:12:00;;;;;;;;;;;5.30;99.90;;;;;;5065243;28;19928;-90
2023/01/15 07:14:30;;;;;;;;;;;5.30;99.90;;;;;;5065871;28;20196;-89
2023/01/15 07:16:55;;;;;;;;;;;5.20;99.90;;;;;;5076531;28;19904;-86
2023/01/15 07:19:21;;;;;;;;;;;5.30;99.90;;;;;;5075374;28;20359;-86
2023/01/15 07:21:47;;;;;;;;;;;5.30;99.90;;;;;;5076872;28;20295;-93
2023/01/15 07:24:13;;;;;;;;;;;5.40;99.90;;;;;;5075178;28;20219;-76
2023/01/15 07:26:38;;;;;;;;;;;5.40;99.90;;;;;;5076072;28;19915;-86
2023/01/15 07:29:04;;;;;;;;;;;5.50;99.90;;;;;;5075685;28;20002;-90
2023/01/15 07:31:30;;;;;;;;;;;5.50;99.90;;;;;;5075809;28;20004;-87
2023/01/15 07:33:56;;;;;;;;;;;5.50;99.90;;;;;;5074906;28;19912;-86
2023/01/15 07:36:21;;;;;;;;;;;5.50;99.90;;;;;;5074906;28;19905;-83
2023/01/15 07:38:47;;;;;;;;;;;5.60;99.90;;;;;;5075325;28;20310;-83
2023/01/15 07:52:09;;;;;;;;;;;5.50;99.90;;;;;;5075140;28;19926;-90
2023/01/15 07:54:34;;;;;;;;;;;5.60;99.90;;;;;;5075206;28;19913;-72
2023/01/15 07:57:00;;;;;;;;;;;5.60;99.90;;;;;;5075909;28;19931;-87
2023/01/15 07:59:25;;;;;;;;;;;5.60;99.90;;;;;;5075301;28;19963;-85
2023/01/15 08:01:51;;;;;;;;;;;5.60;99.90;;;;;;5074530;28;19905;-83
2023/01/15 08:04:17;;;;;;;;;;;5.60;99.90;;;;;;5075798;28;19912;-75
2023/01/15 08:06:42;;;;;;;;;;;5.70;99.90;;;;;;5074659;28;19922;-85
2023/01/15 08:09:08;;;;;;;;;;;5.70;99.90;;;;;;5075147;28;19904;-88
2023/01/15 08:17:02;;;;;;;;;;;5.60;99.90;;;;;;5061130;28;19912;-87
2023/01/15 08:19:30;;;;;;;;;;;5.70;99.90;;;;;;5067007;28;19904;-82
2023/01/15 08:21:57;;;;;;;;;;;5.70;99.90;;;;;;5067515;28;19904;-87
2023/01/15 08:24:22;;;;;;;;;;;5.80;99.90;;;;;;5063629;28;19915;-84
2023/01/15 08:26:48;;;;;;;;;;;5.90;99.90;;;;;;5068663;28;19983;-83
2023/01/15 08:29:14;;;;;;;;;;;6.00;99.90;;;;;;5063751;28;19904;-85
2023/01/15 08:31:40;;;;;;;;;;;6.00;99.90;;;;;;5070338;28;19905;-90
2023/01/15 08:34:06;;;;;;;;;;;6.10;99.90;;;;;;5060444;28;19912;-85
2023/01/15 08:36:31;;;;;;;;;;;6.10;99.90;;;;;;5074564;28;19905;-86
2023/01/15 08:38:57;;;;;;;;;;;6.20;99.90;;;;;;5075263;28;19904;-86
2023/01/15 08:41:22;;;;;;;;;;;6.20;99.90;;;;;;5070784;28;19909;-86
2023/01/15 08:43:48;;;;;;;;;;;6.20;99.90;;;;;;5071113;28;19948;-89
2023/01/15 08:46:14;;;;;;;;;;;6.30;99.90;;;;;;5075860;28;19936;-73
2023/01/15 08:48:39;;;;;;;;;;;6.30;99.90;;;;;;5072398;28;20677;-82
2023/01/15 08:51:06;;;;;;;;;;;6.30;99.90;;;;;;5067036;28;19904;-79
2023/01/15 08:53:32;;;;;;;;;;;6.10;99.90;;;;;;5065635;28;19962;-80
2023/01/15 08:55:58;;;;;;;;;;;5.80;99.90;;;;;;5069856;28;20287;-82
2023/01/15 08:58:26;;;;;;;;;;;5.60;99.90;;;;;;5064089;28;19917;-81
2023/01/15 09:00:51;;;;;;;;;;;5.60;99.90;;;;;;5064078;28;19988;-82
2023/01/15 09:03:18;;;;;;;;;;;5.60;99.90;;;;;;5064356;28;20049;-86
2023/01/15 09:05:43;;;;;;;;;;;5.60;99.90;;;;;;5065350;28;20252;-73
2023/01/15 09:08:09;;;;;;;;;;;5.70;99.90;;;;;;5067005;28;19999;-85
2023/01/15 09:10:35;;;;;;;;;;;5.80;99.90;;;;;;5067226;28;19904;-83
2023/01/15 09:13:01;;;;;;;;;;;6.00;99.90;;;;;;5065357;28;20190;-86
2023/01/15 09:15:28;;;;;;;;;;;6.10;99.90;;;;;;5068161;28;20014;-72
2023/01/15 09:17:54;;;;;;;;;;;6.30;99.90;;;;;;5061259;28;20003;-77
2023/01/15 09:20:19;;;;;;;;;;;6.40;99.90;;;;;;5062252;28;19905;-83
2023/01/15 09:22:45;;;;;;;;;;;6.40;99.90;;;;;;5050158;28;19939;-83
2023/01/15 09:25:11;;;;;;;;;;;6.40;99.90;;;;;;5068987;28;19913;-71
2023/01/15 09:27:36;;;;;;;;;;;6.30;99.90;;;;;;5064703;28;20203;-82
2023/01/15 09:30:03;;;;;;;;;;;6.30;99.90;;;;;;5061279;28;19905;-80
2023/01/15 09:32:28;;;;;;;;;;;6.40;99.90;;;;;;5070207;28;19912;-71
2023/01/15 09:34:54;;;;;;;;;;;6.40;99.90;;;;;;5064129;28;19917;-72
2023/01/15 09:37:20;;;;;;;;;;;6.40;99.90;;;;;;5066176;28;19967;-83
2023/01/15 09:39:46;;;;;;;;;;;6.40;99.90;;;;;;5062708;28;20211;-79
2023/01/15 09:42:17;;;;;;;;;;;6.40;99.90;;;;;;5069095;28;19973;-83
2023/01/15 09:44:43;;;;;;;;;;;6.40;99.90;;;;;;5071071;28;19908;-76
2023/01/15 09:47:11;;;;;;;;;;;6.40;99.90;;;;;;5067103;28;20227;-85
2023/01/15 09:49:49;;;;;;;;;;;6.40;99.90;;;;;;5070589;28;20358;-72
2023/01/15 09:52:53;;;;;;;;;;;6.40;99.90;;;;;;5075186;28;19912;-72
2023/01/15 09:55:21;;;;;;;;;;;6.40;99.90;;;;;;5064551;28;20027;-78
2023/01/15 09:57:49;;;;;;;;;;;6.40;99.90;;;;;;5066529;28;19974;-80
2023/01/15 10:00:19;;;;;;;;;;;6.30;99.90;;;;;;5070170;28;20223;-72
2023/01/15 10:02:46;;;;;;;;;;;6.40;99.90;;;;;;5061613;28;19913;-72
2023/01/15 10:05:21;;;;;;;;;;;6.40;99.90;;;;;;5068939;28;19931;-83
2023/01/15 10:07:49;;;;;;;;;;;6.50;99.90;;;;;;5069038;28;19904;-84
2023/01/15 10:10:17;;;;;;;;;;;6.50;99.90;;;;;;5065275;28;19912;-82
2023/01/15 10:12:44;;;;;;;;;;;6.50;99.90;;;;;;5063941;28;19909;-77
2023/01/15 10:15:13;;;;;;;;;;;6.50;99.90;;;;;;5066222;28;20489;-82
2023/01/15 10:17:45;;;;;;;;;;;6.40;99.90;;;;;;5069654;28;19987;-84
2023/01/15 10:20:13;;;;;;;;;;;6.30;99.90;;;;;;5065664;28;20236;-82
2023/01/15 10:22:54;;;;;;;;;;;6.30;99.90;;;;;;5061451;28;19911;-84
2023/01/15 10:25:23;;;;;;;;;;;6.20;99.90;;;;;;5065882;28;19915;-80
2023/01/15 10:27:50;;;;;;;;;;;6.30;99.90;;;;;;5065602;28;20003;-82
2023/01/15 10:30:29;;;;;;;;;;;6.50;99.90;;;;;;5068685;28;19904;-82
2023/01/15 10:32:57;;;;;;;;;;;6.70;99.90;;;;;;5063887;28;19904;-90
2023/01/15 10:35:28;;;;;;;;;;;6.90;99.90;;;;;;5065476;28;19948;-85
2023/01/15 10:38:14;;;;;;;;;;;6.90;99.90;;;;;;5064093;28;19909;-73
2023/01/15 10:40:58;;;;;;;;;;;7.00;99.90;;;;;;5063640;28;19905;-82
2023/01/15 10:43:36;;;;;;;;;;;7.10;99.90;;;;;;5063078;28;19930;-84
2023/01/15 10:46:09;;;;;;;;;;;7.10;99.90;;;;;;5064265;28;19927;-89
2023/01/15 10:48:41;;;;;;;;;;;7.20;99.90;;;;;;5058368;28;19909;-82
2023/01/15 10:51:19;;;;;;;;;;;7.30;99.90;;;;;;5067320;28;19911;-79
2023/01/15 10:53:44;;;;;;;;;;;7.30;99.90;;;;;;5059211;28;19905;-71
2023/01/15 10:56:13;;;;;;;;;;;7.30;99.90;;;;;;5075520;28;19912;-82
2023/01/15 10:58:39;;;;;;;;;;;7.30;99.90;;;;;;5075458;28;19916;-83
2023/01/15 11:01:10;;;;;;;;;;;7.30;99.90;;;;;;5075524;28;19917;-80
2023/01/15 11:03:40;;;;;;;;;;;7.30;99.90;;;;;;5075252;28;19908;-79
2023/01/15 11:06:10;;;;;;;;;;;7.30;99.90;;;;;;5074831;28;19904;-84
2023/01/15 11:08:36;;;;;;;;;;;7.30;99.90;;;;;;5076076;28;20187;-84
2023/01/15 11:11:21;;;;;;;;;;;7.30;99.90;;;;;;5073488;28;19950;-83
2023/01/15 11:19:38;;;;;;;;;;;7.40;99.90;;;;;;5065143;28;20192;-85
2023/01/15 11:22:14;;;;;;;;;;;7.40;99.90;;;;;;5060913;28;20283;-83
2023/01/15 11:24:59;;;;;;;;;;;7.40;99.90;;;;;;5062973;28;19912;-80
2023/01/15 11:27:32;;;;;;;;;;;7.40;99.90;;;;;;5063115;28;20255;-85
2023/01/15 11:29:59;;;;;;;;;;;7.30;99.90;;;;;;5058768;28;19930;-80
2023/01/15 11:32:24;;;;;;;;;;;7.30;99.90;;;;;;5067766;28;19978;-79
2023/01/15 11:34:58;;;;;;;;;;;7.10;99.90;;;;;;5068808;28;19916;-76
2023/01/15 11:37:24;;;;;;;;;;;6.90;99.90;;;;;;5063510;28;19980;-84
2023/01/15 11:40:05;;;;;;;;;;;6.80;99.90;;;;;;5066653;28;19935;-86
2023/01/15 11:50:48;;;;;;;;;;;7.00;99.90;;;;;;5066623;28;19914;-83
2023/01/15 11:53:17;;;;;;;;;;;7.00;99.90;;;;;;5073738;28;19909;-78
2023/01/15 11:55:50;;;;;;;;;;;7.00;99.90;;;;;;5064123;28;20002;-84
2023/01/15 11:58:15;;;;;;;;;;;7.10;99.90;;;;;;5065127;28;19971;-84
2023/01/15 12:00:45;;;;;;;;;;;7.20;99.90;;;;;;5065620;28;19905;-84
2023/01/15 12:03:13;;;;;;;;;;;7.20;99.90;;;;;;5069681;28;19904;-82
2023/01/15 12:05:44;;;;;;;;;;;7.30;99.90;;;;;;5062112;28;19954;-83
2023/01/15 12:08:32;;;;;;;;;;;7.30;99.90;;;;;;5067286;28;20223;-71
2023/01/15 12:11:02;;;;;;;;;;;7.20;99.90;;;;;;5063905;28;19905;-83
2023/01/15 12:13:47;;;;;;;;;;;7.30;99.90;;;;;;5053181;28;19908;-81
2023/01/15 12:16:12;;;;;;;;;;;7.30;99.90;;;;;;5063410;28;19916;-77
2023/01/15 12:19:07;;;;;;;;;;;7.40;99.90;;;;;;5065493;28;19911;-83
2023/01/15 12:21:33;;;;;;;;;;;7.40;99.90;;;;;;5056623;28;19920;-78
2023/01/15 12:23:58;;;;;;;;;;;7.40;99.90;;;;;;5062710;28;19905;-82
2023/01/15 12:26:37;;;;;;;;;;;7.40;99.90;;;;;;5065962;28;19947;-81
2023/01/15 12:29:10;;;;;;;;;;;7.40;99.90;;;;;;5068123;28;19923;-81
2023/01/15 12:31:42;;;;;;;;;;;7.30;99.90;;;;;;5067378;28;19926;-84
2023/01/15 12:34:27;;;;;;;;;;;7.30;99.90;;;;;;5069503;28;19995;-79
2023/01/15 12:37:23;;;;;;;;;;;7.30;99.90;;;;;;5074538;28;19939;-80
2023/01/15 12:39:51;;;;;;;;;;;7.50;99.90;;;;;;5067826;28;19958;-84
2023/01/15 12:45:09;;;;;;;;;;;7.80;99.90;;;;;;5063289;28;20209;-75
2023/01/15 12:47:52;;;;;;;;;;;7.90;99.90;;;;;;5064467;28;19916;-78
2023/01/15 12:50:21;;;;;;;;;;;7.90;99.90;;;;;;5059813;28;19942;-83
2023/01/15 12:52:48;;;;;;;;;;;7.70;99.90;;;;;;5062416;28;20257;-87
2023/01/15 12:55:17;;;;;;;;;;;7.70;99.90;;;;;;5061933;28;19922;-88
2023/01/15 12:57:44;;;;;;;;;;;7.70;99.90;;;;;;5069459;28;19908;-82
2023/01/15 13:00:36;;;;;;;;;;;7.70;99.90;;;;;;5065957;28;19920;-83
2023/01/15 13:03:08;;;;;;;;;;;7.70;99.90;;;;;;5062615;28;19904;-83
2023/01/15 13:05:47;;;;;;;;;;;7.70;99.90;;;;;;5062563;28;20257;-72
2023/01/15 13:08:18;;;;;;;;;;;7.70;99.90;;;;;;5069743;28;19915;-74
2023/01/15 13:10:45;;;;;;;;;;;7.70;99.90;;;;;;5065758;28;19908;-73
2023/01/15 13:13:13;;;;;;;;;;;7.60;99.90;;;;;;5063990;28;19912;-81
2023/01/15 13:15:43;;;;;;;;;;;7.60;99.90;;;;;;5061781;28;19909;-83
2023/01/15 13:18:13;;;;;;;;;;;7.50;99.90;;;;;;5064348;28;19908;-86
2023/01/15 13:20:46;;;;;;;;;;;7.50;99.90;;;;;;5068974;28;19905;-87
2023/01/15 13:23:14;;;;;;;;;;;7.50;99.90;;;;;;5065746;28;19995;-86
2023/01/15 13:25:46;;;;;;;;;;;7.40;99.90;;;;;;5062612;28;19912;-81
2023/01/15 13:28:19;;;;;;;;;;;7.40;99.90;;;;;;5067987;28;19905;-89
2023/01/15 13:30:48;;;;;;;;;;;7.40;99.90;;;;;;5064821;28;19905;-85
2023/01/15 13:33:22;;;;;;;;;;;7.40;99.90;;;;;;5074750;28;19920;-79
2023/01/15 13:35:50;;;;;;;;;;;7.30;99.90;;;;;;5077346;28;20291;-71
2023/01/15 13:38:19;;;;;;;;;;;7.30;99.90;;;;;;5077973;28;19908;-77
2023/01/15 13:40:49;;;;;;;;;;;7.40;99.90;;;;;;5074873;28;20283;-81
2023/01/15 13:43:21;;;;;;;;;;;7.40;99.90;;;;;;5068447;28;19904;-72
2023/01/15 13:45:49;;;;;;;;;;;7.40;99.90;;;;;;5077213;28;20038;-83
2023/01/15 13:48:24;;;;;;;;;;;7.40;99.90;;;;;;5077882;28;20303;-81
2023/01/15 13:50:54;;;;;;;;;;;7.50;99.90;;;;;;5076778;28;19905;-80
2023/01/15 13:53:43;;;;;;;;;;;7.50;99.90;;;;;;5077584;28;19904;-72
2023/01/15 13:56:15;;;;;;;;;;;7.50;99.90;;;;;;5076739;28;19908;-83
2023/01/15 13:58:55;;;;;;;;;;;7.40;99.90;;;;;;5077533;28;19948;-81
2023/01/15 14:01:22;;;;;;;;;;;7.20;99.90;;;;;;5077415;28;20511;-84
2023/01/15 14:04:03;;;;;;;;;;;7.10;99.90;;;;;;5076620;28;20067;-80
2023/01/15 14:06:35;;;;;;;;;;;7.00;99.90;;;;;;5071061;28;19904;-81
2023/01/15 14:09:00;;;;;;;;;;;6.80;99.90;;;;;;5070854;28;19995;-87
2023/01/15 14:11:38;;;;;;;;;;;6.70;99.90;;;;;;5066258;28;20012;-81
2023/01/15 14:14:16;;;;;;;;;;;6.60;99.90;;;;;;5077226;28;20313;-72
2023/01/15 14:16:53;;;;;;;;;;;6.50;99.90;;;;;;5077132;28;19904;-82
2023/01/15 14:19:25;;;;;;;;;;;6.50;99.90;;;;;;5066871;28;19928;-85
2023/01/15 14:22:08;;;;;;;;;;;6.40;99.90;;;;;;5074793;28;19962;-81
2023/01/15 14:24:36;;;;;;;;;;;6.40;99.90;;;;;;5071009;28;19915;-81
2023/01/15 14:27:13;;;;;;;;;;;6.40;99.90;;;;;;5075743;28;19904;-82
2023/01/15 14:29:49;;;;;;;;;;;6.40;99.90;;;;;;5069046;28;19912;-83
2023/01/15 14:32:30;;;;;;;;;;;6.20;99.90;;;;;;5066591;28;19904;-82
2023/01/15 14:34:57;;;;;;;;;;;6.20;99.90;;;;;;5066133;28;19912;-80
2023/01/15 14:37:36;;;;;;;;;;;6.10;99.90;;;;;;5071604;28;20179;-82
2023/01/15 14:40:02;;;;;;;;;;;6.10;99.90;;;;;;5069340;28;19905;-80
2023/01/15 14:45:36;;;;;;;;;;;6.00;99.90;;;;;;5076247;28;19962;-77
2023/01/15 14:48:14;;;;;;;;;;;5.90;99.90;;;;;;5076390;28;19944;-83
2023/01/15 14:50:42;;;;;;;;;;;5.80;99.90;;;;;;5075551;28;20319;-84
2023/01/15 14:53:14;;;;;;;;;;;5.80;99.90;;;;;;5074095;28;20207;-85
2023/01/15 14:55:45;;;;;;;;;;;5.80;99.90;;;;;;5065428;28;19915;-79
2023/01/15 14:58:22;;;;;;;;;;;5.70;99.90;;;;;;5075647;28;19939;-79
2023/01/15 15:00:51;;;;;;;;;;;5.70;99.90;;;;;;5074048;28;20290;-82
2023/01/15 15:03:18;;;;;;;;;;;5.60;99.90;;;;;;5075937;28;19908;-82
2023/01/15 15:05:45;;;;;;;;;;;5.70;99.90;;;;;;5076733;28;19999;-73
2023/01/15 15:08:13;;;;;;;;;;;5.70;99.90;;;;;;5061989;28;20318;-83
2023/01/15 15:10:40;;;;;;;;;;;5.70;99.90;;;;;;5064922;28;19974;-81
2023/01/15 15:13:15;;;;;;;;;;;5.70;99.90;;;;;;5065655;28;19909;-86
2023/01/15 15:15:44;;;;;;;;;;;5.80;99.90;;;;;;5060796;28;20311;-84
2023/01/15 15:18:10;;;;;;;;;;;5.80;99.90;;;;;;5066629;28;19908;-84
2023/01/15 15:20:54;;;;;;;;;;;5.80;99.90;;;;;;5064877;28;20200;-75
2023/01/15 15:23:38;;;;;;;;;;;5.90;99.90;;;;;;5065528;28;19915;-79
2023/01/15 15:26:05;;;;;;;;;;;5.90;99.90;;;;;;5073155;28;20193;-82
2023/01/15 15:28:31;;;;;;;;;;;5.80;99.90;;;;;;5075429;28;20269;-79
2023/01/15 15:31:01;;;;;;;;;;;5.70;99.90;;;;;;5075348;28;19999;-81
2023/01/15 15:33:36;;;;;;;;;;;5.60;99.90;;;;;;5074422;28;20301;-84
2023/01/15 15:36:01;;;;;;;;;;;5.60;99.90;;;;;;5075814;28;19966;-83
2023/01/15 15:38:27;;;;;;;;;;;5.60;99.90;;;;;;5066571;28;19904;-81
2023/01/15 15:40:59;;;;;;;;;;;5.50;99.90;;;;;;5059581;28;20355;-86
2023/01/15 15:49:06;;;;;;;;;;;5.50;99.90;;;;;;5061191;28;19928;-88
2023/01/15 15:51:33;;;;;;;;;;;5.50;99.90;;;;;;5067555;28;20303;-84
2023/01/15 15:54:02;;;;;;;;;;;5.50;99.90;;;;;;5067910;28;19908;-82
2023/01/15 15:56:28;;;;;;;;;;;5.50;99.90;;;;;;5059714;28;19905;-81
2023/01/15 15:58:57;;;;;;;;;;;5.40;99.90;;;;;;5062505;28;19923;-77
2023/01/15 16:01:22;;;;;;;;;;;5.40;99.90;;;;;;5065999;28;19909;-81
2023/01/15 16:03:48;;;;;;;;;;;5.40;99.90;;;;;;5065823;28;19954;-81